Pagrindinis puslapis
METAR-TAF:

METAR-TAF

Oro uostai :

Sanya, Kinija

platuma: 18-18N, ilguma: 109-24E, Aukštis: 27 m

Dabartinis oras

Ataskaita buvo paskelbta 1 valandą ir 2 minutes, ne 20:00 UTC
Vėjas 4 kt iš Šiaurės Vakarų
Temperatūra 25°C
Drėgmė 89%
Slėgis 1009 hPa
Matomumas 10 km arba daugiau
Mažai debesys ne aukštis 2000 ft
Su prošvaistėmis ne aukštis 6600 ft

METAR: ZJSY 202000Z 32002MPS 9999 FEW020 BKN066 25/23 Q1009 NOSIG

Laikas: 05:02 (21:02 UTC)

Prognozė

Ataskaita buvo paskelbta 6 valandos ir 0 minutes, ne 15:02 UTC
Prognozė galioja nuo 20 metu 18 UTC su 21 metu 18 UTC
Vėjas 8 kt iš Pietvakarių
Matomumas 10 km arba daugiau
Išsisklaidę debesys ne aukštis 2000 ft
Laikinai
nuo 20 metu 18 UTC su 20 metu 24 UTC
Išsisklaidę debesys ne aukštis 1600 ft
Mažai debesys ne aukštis 2500 ft, Liūtiniai kamuoliniai debesys.
Su prošvaistėmis ne aukštis 5000 ft

TAF: ZJSY 201502Z 2018/2118 22004MPS 9999 SCT020 TX32/2106Z TN25/2021Z TEMPO 2018/2024 SCT016 FEW025CB BKN050

Orai ataskaitas ir orų prognozės (METAR, TAF).

turimą stotys yra geltonos ir raudonos taškus žemėlapyje.

Perkelti pele per norėdami pamatyti stoties vardą.

Tada spustelėkite, norėdami matyti oro stebėjimo ir prognozės.

Norėdami pakeisti žemėlapį: spustelėkite ant žalios mygtukų su juodo kryžiaus žemyn,; žalią mygtuką su brūkšneliu, jei norite nutolinti; arba žalių rodyklių gretimoms žemėlapius.


METAR-TAF: